KNIP/NIP METAR and TAF weather

Enter ICAO airport designator
Station Type Date Time Source
KNIP METAR 2019/10/15 21:53 UTC NOAA

KNIP 152153Z 09009KT 10SM SCT017 BKN120 BKN180 BKN200 26/22 A2998 RMK AO2 SLP146 T02560217


Station Type Date Time Source
KNIP Decoded METAR 2019/10/15 21:53 UTC NOAA

JACKSONVILLE NAVAL AIR STN, FL, United States (KNIP) 30-14N 81-40W 8M
Oct 15, 2019 - 05:53 PM EDT / 2019.10.15 2153 UTC
Wind: from the E (090 degrees) at 10 MPH (9 KT):0
Visibility: 10 mile(s):0
Sky conditions: mostly cloudy
Temperature: 78.1 F (25.6 C)
Dew Point: 71.1 F (21.7 C)
Relative Humidity: 79%
Pressure (altimeter): 29.98 in. Hg (1015 hPa)
ob: KNIP 152153Z 09009KT 10SM SCT017 BKN120 BKN180 BKN200 26/22 A2998 RMK AO2 SLP146 T02560217
cycle: 22

Station Type Date Time Source
KNIP TAF 2019/10/15 15:59 UTC NOAA

TAF KNIP 1515/1615 VRB04KT 9999 FEW025 FEW110 BKN150 BKN250 QNH3000INS
FM151900 08008KT 9999 VCSH SCT025 BKN150 BKN250 QNH2994INS
FM160100 11008KT 9999 VCSH SCT030 SCT070 BKN120 QNH2987INS
FM160900 20008KT 6000 RA SCT025 BKN040 OVC100 QNH2986INS T28/1520Z T24/1611Z FN20016

Example: see airport list